createdAt,value
2019-05-26T00:01:24.890Z,18.70
2019-05-26T00:03:53.385Z,18.60
2019-05-26T00:06:21.881Z,18.57
2019-05-26T00:08:50.705Z,18.50
2019-05-26T00:11:19.455Z,18.45
2019-05-26T00:13:48.182Z,18.36
2019-05-26T00:16:16.688Z,18.31
2019-05-26T00:18:45.213Z,18.26
2019-05-26T00:21:13.697Z,18.22
2019-05-26T00:23:42.309Z,18.21
2019-05-26T00:26:10.846Z,18.18
2019-05-26T00:28:39.348Z,18.16
2019-05-26T00:31:07.841Z,18.12
2019-05-26T00:33:36.352Z,18.05
2019-05-26T00:36:05.402Z,18.00
2019-05-26T00:38:34.163Z,17.93
2019-05-26T00:41:02.761Z,17.90
2019-05-26T00:43:31.209Z,17.84
2019-05-26T00:46:00.000Z,17.82
2019-05-26T00:48:28.832Z,17.79
2019-05-26T00:50:57.336Z,17.74
2019-05-26T00:53:26.068Z,17.73
2019-05-26T00:55:54.809Z,17.69
2019-05-26T00:58:23.317Z,17.69
2019-05-26T01:00:51.815Z,17.64
2019-05-26T01:03:20.546Z,17.65
2019-05-26T01:05:49.050Z,17.58
2019-05-26T01:08:17.787Z,17.56
2019-05-26T01:10:46.309Z,17.41
2019-05-26T01:13:15.086Z,17.36
2019-05-26T01:15:43.587Z,17.36
2019-05-26T01:18:12.990Z,17.32
2019-05-26T01:20:41.468Z,17.30
2019-05-26T01:23:09.955Z,17.25
2019-05-26T01:25:38.538Z,17.24
2019-05-26T01:28:07.062Z,17.14
2019-05-26T01:30:37.082Z,17.14
2019-05-26T01:33:05.677Z,17.14
2019-05-26T01:35:34.460Z,17.13
2019-05-26T01:38:02.985Z,17.11
2019-05-26T01:40:39.579Z,17.07
2019-05-26T01:43:08.327Z,17.07
2019-05-26T01:45:36.837Z,17.05
2019-05-26T01:48:05.994Z,16.98
2019-05-26T01:50:34.715Z,16.97
2019-05-26T01:53:03.602Z,16.92
2019-05-26T01:55:32.088Z,16.90
2019-05-26T01:58:00.690Z,16.87
2019-05-26T02:00:29.178Z,16.87
2019-05-26T02:02:57.771Z,16.83
2019-05-26T02:05:26.546Z,16.79
2019-05-26T02:07:55.061Z,16.62
2019-05-26T02:10:23.530Z,16.58
2019-05-26T02:12:52.056Z,16.60
2019-05-26T02:15:20.617Z,16.58
2019-05-26T02:17:49.571Z,16.57
2019-05-26T02:20:18.167Z,16.56
2019-05-26T02:22:46.669Z,16.53
2019-05-26T02:25:15.793Z,16.54
2019-05-26T02:27:44.918Z,16.51
2019-05-26T02:30:13.430Z,16.52
2019-05-26T02:32:41.959Z,16.47
2019-05-26T02:35:11.513Z,16.47
2019-05-26T02:37:40.015Z,16.46
2019-05-26T02:40:08.672Z,16.41
2019-05-26T02:42:37.174Z,16.35
2019-05-26T02:45:07.360Z,16.33
2019-05-26T02:47:35.852Z,16.32
2019-05-26T02:50:04.920Z,16.31
2019-05-26T02:52:33.415Z,16.26
2019-05-26T02:55:02.246Z,16.19
2019-05-26T02:57:30.760Z,16.15
2019-05-26T02:59:59.320Z,16.11
2019-05-26T03:02:28.179Z,16.05
2019-05-26T03:04:56.684Z,16.01
2019-05-26T03:07:26.134Z,16.00
2019-05-26T03:09:55.365Z,15.98
2019-05-26T03:12:23.875Z,15.97
2019-05-26T03:14:53.199Z,15.98
2019-05-26T03:17:21.959Z,15.99
2019-05-26T03:19:50.810Z,15.98
2019-05-26T03:22:19.982Z,16.01
2019-05-26T03:24:50.654Z,16.01
2019-05-26T03:27:19.179Z,15.99
2019-05-26T03:29:47.784Z,15.98
2019-05-26T03:32:16.427Z,15.95
2019-05-26T03:34:44.942Z,15.95
2019-05-26T03:37:13.504Z,15.93
2019-05-26T03:39:45.261Z,15.92
2019-05-26T03:42:12.458Z,15.89
2019-05-26T03:44:41.006Z,15.88
2019-05-26T03:47:09.510Z,15.87
2019-05-26T03:49:38.030Z,15.84
2019-05-26T03:52:06.538Z,15.85
2019-05-26T03:54:35.129Z,15.88
2019-05-26T03:57:03.620Z,15.92
2019-05-26T03:59:32.212Z,15.84
2019-05-26T04:02:00.771Z,15.87
2019-05-26T04:04:29.371Z,15.92
2019-05-26T04:06:57.867Z,16.06
2019-05-26T04:09:26.629Z,16.20
2019-05-26T04:11:55.227Z,16.32
2019-05-26T04:14:23.738Z,16.41
2019-05-26T04:16:52.313Z,16.52
2019-05-26T04:19:21.109Z,16.68
2019-05-26T04:21:49.674Z,16.81
2019-05-26T04:24:18.261Z,16.99
2019-05-26T04:26:46.820Z,16.86
2019-05-26T04:29:15.400Z,16.90
2019-05-26T04:31:43.998Z,17.16
2019-05-26T04:34:12.491Z,17.58
2019-05-26T04:36:41.051Z,17.57
2019-05-26T04:39:09.539Z,17.66
2019-05-26T04:41:38.052Z,18.04
2019-05-26T04:44:06.940Z,18.54
2019-05-26T04:46:35.421Z,18.92
2019-05-26T04:49:03.950Z,19.24
2019-05-26T04:51:32.454Z,19.66
2019-05-26T04:54:20.831Z,19.64
2019-05-26T04:56:49.379Z,19.58
2019-05-26T04:59:18.058Z,21.07
2019-05-26T05:01:46.574Z,23.71
2019-05-26T05:04:15.079Z,25.36
2019-05-26T05:06:43.624Z,25.79
2019-05-26T05:09:12.186Z,26.52
2019-05-26T05:11:41.224Z,26.18
2019-05-26T05:14:09.725Z,25.40
2019-05-26T05:16:38.261Z,24.08
2019-05-26T05:19:06.872Z,23.35
2019-05-26T05:21:35.517Z,23.61
2019-05-26T05:24:04.019Z,22.94
2019-05-26T05:26:32.526Z,22.55
2019-05-26T05:29:01.022Z,22.78
2019-05-26T05:31:29.905Z,22.75
2019-05-26T05:33:58.423Z,23.07
2019-05-26T05:36:26.924Z,24.02
2019-05-26T05:38:55.731Z,26.78
2019-05-26T05:41:24.804Z,29.35
2019-05-26T05:43:53.305Z,31.28
2019-05-26T05:46:21.797Z,32.50
2019-05-26T05:48:50.315Z,32.96
2019-05-26T05:51:18.795Z,34.84
2019-05-26T05:53:47.280Z,35.96
2019-05-26T05:56:15.805Z,35.53
2019-05-26T05:58:44.784Z,35.89
2019-05-26T06:01:13.382Z,37.52
2019-05-26T06:03:42.122Z,37.25
2019-05-26T06:06:10.921Z,37.11
2019-05-26T06:08:39.425Z,37.14
2019-05-26T06:11:16.600Z,37.79
2019-05-26T06:13:38.125Z,38.61
2019-05-26T06:16:06.609Z,40.10
2019-05-26T06:18:35.136Z,39.44
2019-05-26T06:21:03.676Z,41.24
2019-05-26T06:23:32.215Z,41.24
2019-05-26T06:26:00.760Z,41.79
2019-05-26T06:28:29.263Z,42.24
2019-05-26T06:30:57.811Z,43.79
2019-05-26T06:33:26.901Z,45.67
2019-05-26T06:35:55.408Z,46.55
2019-05-26T06:38:23.976Z,42.95
2019-05-26T06:40:52.840Z,43.10
2019-05-26T06:43:21.343Z,43.81
2019-05-26T06:45:49.863Z,43.90
2019-05-26T06:48:18.402Z,42.61
2019-05-26T06:50:46.909Z,41.73
2019-05-26T06:53:15.420Z,40.67
2019-05-26T06:55:44.046Z,37.00
2019-05-26T06:58:12.714Z,30.99
2019-05-26T07:00:41.704Z,29.27
2019-05-26T07:03:10.509Z,28.92
2019-05-26T07:05:39.176Z,29.03
2019-05-26T07:08:07.852Z,27.96
2019-05-26T07:10:36.779Z,28.34
2019-05-26T07:13:05.421Z,28.16
2019-05-26T07:15:34.107Z,26.47
2019-05-26T07:18:03.125Z,26.80
2019-05-26T07:20:31.825Z,27.10
2019-05-26T07:23:00.668Z,27.30
2019-05-26T07:25:29.300Z,26.78
2019-05-26T07:27:57.902Z,27.38
2019-05-26T07:30:26.722Z,27.66
2019-05-26T07:32:55.213Z,27.62
2019-05-26T07:35:23.822Z,24.27
2019-05-26T07:37:52.436Z,22.55
2019-05-26T07:40:21.044Z,23.69
2019-05-26T07:42:49.647Z,25.23
2019-05-26T07:45:18.381Z,25.76
2019-05-26T07:47:47.025Z,26.18
2019-05-26T07:50:15.636Z,26.70
2019-05-26T07:52:44.610Z,25.70
2019-05-26T07:55:13.320Z,24.98
2019-05-26T07:57:42.022Z,25.91
2019-05-26T08:00:10.692Z,26.55
2019-05-26T08:02:39.308Z,27.16
2019-05-26T08:05:10.561Z,26.97
2019-05-26T08:07:39.095Z,26.36
2019-05-26T08:10:07.790Z,27.04
2019-05-26T08:12:36.486Z,27.52
2019-05-26T08:15:05.240Z,27.66
2019-05-26T08:17:33.762Z,27.63
2019-05-26T08:20:02.292Z,27.64
2019-05-26T08:22:30.782Z,27.32
2019-05-26T08:24:59.271Z,27.40
2019-05-26T08:27:27.760Z,27.58
2019-05-26T08:29:56.550Z,28.43
2019-05-26T08:32:25.039Z,28.09
2019-05-26T08:34:53.561Z,28.39
2019-05-26T08:37:22.063Z,28.61
2019-05-26T08:39:50.554Z,28.39
2019-05-26T08:42:27.249Z,28.18
2019-05-26T08:44:49.285Z,27.16
2019-05-26T08:47:17.782Z,26.69
2019-05-26T08:49:46.280Z,26.10
2019-05-26T08:52:14.804Z,27.42
2019-05-26T08:54:43.291Z,27.88
2019-05-26T08:57:12.134Z,26.06
2019-05-26T08:59:40.640Z,27.13
2019-05-26T09:02:09.149Z,27.97
2019-05-26T09:04:37.640Z,27.81
2019-05-26T09:07:06.145Z,28.53
2019-05-26T09:09:34.842Z,28.86
2019-05-26T09:12:03.417Z,29.37
2019-05-26T09:14:32.029Z,29.46
2019-05-26T09:17:00.565Z,28.45
2019-05-26T09:19:29.049Z,28.92
2019-05-26T09:21:57.552Z,29.38
2019-05-26T09:24:26.050Z,29.62
2019-05-26T09:26:54.581Z,29.45
2019-05-26T09:29:23.115Z,29.39
2019-05-26T09:31:51.581Z,29.97
2019-05-26T09:34:20.114Z,29.58
2019-05-26T09:36:48.632Z,30.10
2019-05-26T09:39:17.145Z,30.32
2019-05-26T09:41:45.649Z,30.82
2019-05-26T09:44:14.404Z,30.94
2019-05-26T09:46:42.916Z,31.06
2019-05-26T09:49:11.435Z,29.92
2019-05-26T09:51:40.072Z,29.54
2019-05-26T09:54:08.663Z,29.76
2019-05-26T09:56:37.256Z,30.71
2019-05-26T09:59:05.779Z,31.50
2019-05-26T10:01:34.287Z,31.93
2019-05-26T10:04:02.861Z,31.68
2019-05-26T10:06:31.356Z,32.56
2019-05-26T10:08:59.869Z,33.91
2019-05-26T10:11:28.383Z,35.17
2019-05-26T10:13:57.012Z,35.76
2019-05-26T10:16:25.520Z,36.81
2019-05-26T10:18:54.093Z,36.25
2019-05-26T10:21:22.593Z,36.01
2019-05-26T10:23:53.158Z,35.94
2019-05-26T10:26:21.717Z,35.50
2019-05-26T10:28:50.261Z,36.20
2019-05-26T10:31:18.749Z,34.95
2019-05-26T10:33:47.271Z,33.18
2019-05-26T10:36:15.769Z,33.65
2019-05-26T10:38:44.576Z,34.33
2019-05-26T10:41:13.153Z,34.32
2019-05-26T10:43:47.437Z,34.73
2019-05-26T10:46:11.945Z,34.70
2019-05-26T10:48:40.458Z,33.16
2019-05-26T10:51:09.866Z,32.80
2019-05-26T10:53:38.408Z,31.94
2019-05-26T10:56:06.985Z,31.58
2019-05-26T10:58:35.729Z,31.04
2019-05-26T11:01:04.222Z,30.48
2019-05-26T11:03:32.755Z,30.53
2019-05-26T11:06:01.493Z,29.50
2019-05-26T11:08:30.254Z,29.60
2019-05-26T11:10:58.828Z,30.33
2019-05-26T11:13:27.341Z,30.62
2019-05-26T11:15:55.839Z,30.23
2019-05-26T11:18:24.371Z,29.53
2019-05-26T11:20:54.669Z,29.54
2019-05-26T11:23:23.280Z,29.90
2019-05-26T11:25:51.785Z,30.63
2019-05-26T11:28:20.352Z,31.26
2019-05-26T11:30:48.837Z,31.37
2019-05-26T11:33:17.417Z,31.24
2019-05-26T11:35:45.931Z,31.15
2019-05-26T11:38:14.421Z,31.27
2019-05-26T11:40:42.949Z,31.68
2019-05-26T11:43:16.893Z,31.31
2019-05-26T11:45:41.725Z,31.21
2019-05-26T11:48:10.221Z,31.22
2019-05-26T11:50:38.705Z,31.12
2019-05-26T11:53:07.203Z,30.72
2019-05-26T11:55:35.784Z,31.40
2019-05-26T11:58:04.281Z,31.59
2019-05-26T12:00:32.774Z,31.87
2019-05-26T12:03:01.283Z,32.12
2019-05-26T12:05:29.772Z,32.18
2019-05-26T12:07:58.275Z,31.96
2019-05-26T12:10:26.867Z,32.17
2019-05-26T12:12:55.646Z,31.44
2019-05-26T12:15:24.158Z,31.58
2019-05-26T12:17:52.670Z,31.88
2019-05-26T12:20:21.178Z,31.65
2019-05-26T12:22:49.708Z,31.71
2019-05-26T12:25:18.211Z,31.78
2019-05-26T12:27:46.776Z,31.63
2019-05-26T12:30:15.443Z,31.72
2019-05-26T12:32:43.989Z,31.34
2019-05-26T12:35:12.481Z,31.63
2019-05-26T12:37:40.996Z,31.82
2019-05-26T12:40:09.601Z,31.65
2019-05-26T12:42:38.077Z,31.58
2019-05-26T12:45:06.614Z,31.35
2019-05-26T12:47:35.466Z,31.62
2019-05-26T12:50:04.493Z,31.72
2019-05-26T12:52:32.999Z,31.81
2019-05-26T12:55:01.491Z,31.81
2019-05-26T12:57:30.074Z,32.09
2019-05-26T12:59:58.581Z,32.04
2019-05-26T13:02:27.070Z,32.55
2019-05-26T13:04:55.623Z,33.11
2019-05-26T13:07:24.149Z,33.20
2019-05-26T13:09:52.666Z,32.94
2019-05-26T13:12:21.228Z,33.13
2019-05-26T13:15:04.961Z,32.96
2019-05-26T13:17:20.053Z,33.37
2019-05-26T13:19:48.839Z,32.99
2019-05-26T13:22:17.326Z,32.14
2019-05-26T13:24:45.872Z,31.78
2019-05-26T13:27:14.344Z,31.78
2019-05-26T13:29:42.967Z,31.96
2019-05-26T13:32:11.518Z,31.56
2019-05-26T13:34:40.087Z,31.18
2019-05-26T13:37:08.601Z,31.12
2019-05-26T13:39:37.124Z,31.24
2019-05-26T13:42:05.630Z,31.14
2019-05-26T13:44:34.117Z,31.80
2019-05-26T13:47:02.643Z,31.92
2019-05-26T13:49:31.128Z,31.62
2019-05-26T13:51:59.668Z,31.87
2019-05-26T13:54:28.181Z,31.63
2019-05-26T13:56:56.745Z,32.32
2019-05-26T13:59:25.265Z,32.32
2019-05-26T14:01:53.810Z,32.38
2019-05-26T14:04:22.629Z,32.49
2019-05-26T14:06:51.124Z,32.53
2019-05-26T14:09:19.629Z,32.04
2019-05-26T14:11:48.137Z,31.77
2019-05-26T14:14:16.666Z,31.56
2019-05-26T14:16:45.883Z,32.18
2019-05-26T14:19:14.472Z,32.76
2019-05-26T14:21:43.354Z,33.01
2019-05-26T14:24:11.838Z,33.37
2019-05-26T14:26:40.389Z,33.35
2019-05-26T14:29:08.877Z,33.29
2019-05-26T14:31:37.402Z,32.95
2019-05-26T14:34:05.921Z,33.02
2019-05-26T14:36:34.432Z,32.77
2019-05-26T14:39:02.937Z,32.96
2019-05-26T14:41:31.454Z,32.88
2019-05-26T14:44:00.032Z,32.19
2019-05-26T14:46:28.546Z,31.86
2019-05-26T14:48:57.068Z,31.78
2019-05-26T14:51:25.575Z,31.37
2019-05-26T14:53:54.131Z,31.12
2019-05-26T14:56:22.626Z,31.40
2019-05-26T14:58:51.142Z,31.91
2019-05-26T15:01:19.640Z,32.37
2019-05-26T15:03:48.158Z,32.77
2019-05-26T15:06:16.682Z,31.93
2019-05-26T15:08:45.181Z,31.73
2019-05-26T15:11:13.671Z,31.73
2019-05-26T15:13:42.406Z,31.59
2019-05-26T15:16:10.923Z,32.00
2019-05-26T15:18:39.428Z,32.31
2019-05-26T15:21:08.077Z,32.53
2019-05-26T15:23:36.672Z,32.14
2019-05-26T15:26:05.653Z,31.33
2019-05-26T15:28:34.252Z,30.68
2019-05-26T15:31:02.766Z,30.38
2019-05-26T15:33:31.355Z,30.67
2019-05-26T15:35:59.916Z,31.25
2019-05-26T15:38:41.933Z,31.57
2019-05-26T15:40:58.617Z,31.88
2019-05-26T15:43:27.114Z,31.60
2019-05-26T15:45:55.611Z,30.79
2019-05-26T15:48:24.152Z,30.47
2019-05-26T15:50:52.668Z,30.50
2019-05-26T15:53:21.273Z,30.51
2019-05-26T15:55:49.758Z,30.15
2019-05-26T15:58:18.526Z,29.98
2019-05-26T16:00:47.151Z,29.61
2019-05-26T16:03:15.616Z,29.55
2019-05-26T16:05:44.141Z,29.63
2019-05-26T16:08:12.637Z,29.64
2019-05-26T16:10:41.127Z,29.65
2019-05-26T16:13:09.620Z,29.67
2019-05-26T16:15:38.106Z,29.74
2019-05-26T16:18:06.886Z,29.75
2019-05-26T16:20:35.365Z,29.86
2019-05-26T16:23:03.921Z,29.83
2019-05-26T16:25:32.439Z,29.76
2019-05-26T16:28:00.923Z,29.92
2019-05-26T16:30:29.507Z,30.35
2019-05-26T16:32:58.167Z,30.74
2019-05-26T16:35:26.762Z,30.61
2019-05-26T16:37:55.258Z,30.62
2019-05-26T16:40:23.788Z,30.43
2019-05-26T16:42:52.275Z,30.26
2019-05-26T16:45:20.956Z,30.18
2019-05-26T16:47:49.832Z,30.06
2019-05-26T16:50:18.686Z,30.15
2019-05-26T16:52:47.727Z,30.06
2019-05-26T16:55:16.317Z,29.92
2019-05-26T16:57:44.860Z,29.34
2019-05-26T17:00:13.435Z,29.09
2019-05-26T17:02:41.912Z,28.97
2019-05-26T17:05:10.559Z,28.98
2019-05-26T17:07:39.088Z,28.78
2019-05-26T17:10:07.651Z,28.45
2019-05-26T17:12:36.155Z,28.47
2019-05-26T17:15:05.148Z,28.21
2019-05-26T17:17:33.761Z,28.24
2019-05-26T17:20:02.329Z,28.32
2019-05-26T17:22:31.088Z,28.29
2019-05-26T17:25:00.089Z,28.16
2019-05-26T17:27:28.924Z,28.29
2019-05-26T17:29:57.491Z,28.36
2019-05-26T17:32:26.005Z,28.49
2019-05-26T17:34:54.566Z,28.45
2019-05-26T17:37:23.349Z,28.42
2019-05-26T17:39:52.026Z,28.25
2019-05-26T17:42:20.618Z,28.03
2019-05-26T17:44:49.152Z,28.07
2019-05-26T17:47:29.885Z,27.92
2019-05-26T17:49:48.340Z,27.66
2019-05-26T17:52:16.963Z,27.43
2019-05-26T17:54:45.500Z,27.24
2019-05-26T17:57:14.004Z,27.27
2019-05-26T17:59:42.560Z,27.31
2019-05-26T18:02:11.138Z,27.30
2019-05-26T18:04:39.679Z,27.16
2019-05-26T18:07:08.172Z,27.07
2019-05-26T18:09:44.351Z,26.96
2019-05-26T18:12:06.978Z,26.96
2019-05-26T18:14:35.575Z,27.06
2019-05-26T18:17:04.290Z,27.07
2019-05-26T18:19:32.788Z,26.93
2019-05-26T18:22:01.456Z,26.71
2019-05-26T18:24:30.078Z,26.78
2019-05-26T18:26:58.712Z,26.77
2019-05-26T18:29:27.429Z,26.78
2019-05-26T18:31:56.545Z,26.80
2019-05-26T18:34:25.353Z,26.83
2019-05-26T18:36:53.953Z,26.78
2019-05-26T18:39:22.574Z,26.68
2019-05-26T18:41:51.182Z,26.72
2019-05-26T18:44:19.856Z,26.64
2019-05-26T18:46:48.535Z,26.56
2019-05-26T18:49:17.646Z,26.39
2019-05-26T18:51:46.317Z,26.37
2019-05-26T18:54:14.914Z,26.28
2019-05-26T18:56:43.585Z,26.20
2019-05-26T18:59:12.407Z,26.32
2019-05-26T19:01:41.060Z,26.25
2019-05-26T19:04:09.836Z,26.21
2019-05-26T19:06:38.443Z,26.19
2019-05-26T19:09:08.637Z,26.02
2019-05-26T19:11:37.367Z,25.80
2019-05-26T19:14:06.240Z,25.99
2019-05-26T19:16:34.892Z,26.07
2019-05-26T19:19:03.741Z,26.03
2019-05-26T19:21:32.369Z,25.88
2019-05-26T19:24:00.937Z,25.71
2019-05-26T19:26:29.494Z,25.64
2019-05-26T19:28:58.160Z,25.49
2019-05-26T19:31:26.979Z,25.55
2019-05-26T19:33:55.861Z,25.62
2019-05-26T19:36:24.501Z,25.71
2019-05-26T19:38:53.195Z,25.65
2019-05-26T19:41:21.893Z,25.36
2019-05-26T19:43:50.584Z,25.42
2019-05-26T19:46:19.231Z,25.26
2019-05-26T19:48:48.068Z,25.27
2019-05-26T19:51:16.699Z,25.03
2019-05-26T19:53:45.323Z,24.87
2019-05-26T19:56:13.997Z,24.65
2019-05-26T19:58:42.742Z,24.53
2019-05-26T20:01:11.362Z,24.38
2019-05-26T20:03:39.949Z,24.50
2019-05-26T20:06:08.538Z,24.53
2019-05-26T20:08:37.078Z,24.54
2019-05-26T20:11:05.643Z,24.59
2019-05-26T20:13:34.425Z,24.71
2019-05-26T20:16:02.953Z,24.74
2019-05-26T20:18:31.512Z,24.77
2019-05-26T20:21:00.359Z,24.90
2019-05-26T20:23:29.144Z,24.97
2019-05-26T20:25:57.640Z,25.03
2019-05-26T20:28:26.181Z,24.98
2019-05-26T20:30:54.672Z,24.91
2019-05-26T20:33:23.229Z,24.91
2019-05-26T20:35:52.078Z,24.94
2019-05-26T20:38:20.954Z,24.90
2019-05-26T20:40:49.480Z,24.82
2019-05-26T20:43:18.331Z,24.88
2019-05-26T20:45:46.855Z,24.89
2019-05-26T20:48:15.363Z,24.83
2019-05-26T20:50:43.926Z,24.90
2019-05-26T20:53:12.803Z,24.87
2019-05-26T20:55:41.308Z,24.80
2019-05-26T20:58:10.097Z,24.57
2019-05-26T21:00:38.580Z,24.61
2019-05-26T21:03:07.071Z,24.69
2019-05-26T21:05:35.576Z,24.60
2019-05-26T21:08:04.056Z,24.61
2019-05-26T21:10:32.560Z,24.60
2019-05-26T21:13:01.060Z,24.42
2019-05-26T21:15:29.569Z,24.10
2019-05-26T21:17:58.149Z,24.15
2019-05-26T21:20:26.652Z,24.12
2019-05-26T21:22:55.895Z,24.21
2019-05-26T21:25:24.524Z,23.96
2019-05-26T21:27:53.014Z,23.96
2019-05-26T21:30:21.520Z,24.02
2019-05-26T21:32:50.034Z,24.15
2019-05-26T21:35:18.864Z,24.10
2019-05-26T21:37:47.386Z,23.87
2019-05-26T21:40:15.889Z,23.69
2019-05-26T21:42:44.380Z,23.86
2019-05-26T21:45:12.877Z,24.06
2019-05-26T21:47:41.370Z,23.83
2019-05-26T21:50:09.871Z,23.94
2019-05-26T21:52:38.347Z,24.04
2019-05-26T21:55:06.834Z,23.76
2019-05-26T21:57:35.324Z,23.58
2019-05-26T22:00:04.524Z,23.60
2019-05-26T22:02:33.010Z,23.43
2019-05-26T22:05:01.509Z,23.40
2019-05-26T22:07:30.291Z,22.77
2019-05-26T22:09:58.804Z,22.98
2019-05-26T22:12:27.360Z,23.06
2019-05-26T22:14:55.969Z,22.60
2019-05-26T22:17:24.450Z,22.87
2019-05-26T22:19:52.932Z,22.66
2019-05-26T22:22:21.701Z,23.11
2019-05-26T22:24:50.166Z,23.30
2019-05-26T22:27:18.833Z,23.26
2019-05-26T22:29:47.367Z,23.35
2019-05-26T22:32:16.281Z,23.33
2019-05-26T22:34:44.775Z,23.41
2019-05-26T22:37:13.270Z,23.25
2019-05-26T22:39:41.761Z,23.30
2019-05-26T22:42:10.593Z,23.42
2019-05-26T22:44:39.069Z,23.20
2019-05-26T22:47:07.559Z,23.22
2019-05-26T22:49:36.043Z,23.04
2019-05-26T22:52:04.534Z,23.02
2019-05-26T22:54:33.265Z,23.13
2019-05-26T22:57:01.752Z,23.16
2019-05-26T22:59:30.260Z,23.17
2019-05-26T23:01:58.740Z,23.06
2019-05-26T23:04:27.229Z,22.87
2019-05-26T23:06:55.717Z,22.76
2019-05-26T23:09:24.209Z,22.61
2019-05-26T23:11:52.711Z,22.55
2019-05-26T23:14:21.234Z,22.43
2019-05-26T23:16:49.764Z,22.37
2019-05-26T23:19:20.023Z,22.37
2019-05-26T23:21:48.472Z,22.39
2019-05-26T23:24:17.281Z,22.31
2019-05-26T23:26:45.783Z,22.26
2019-05-26T23:29:14.287Z,22.27
2019-05-26T23:31:42.776Z,22.23
2019-05-26T23:34:11.525Z,22.26
2019-05-26T23:36:40.008Z,22.31
2019-05-26T23:39:08.798Z,22.31
2019-05-26T23:41:37.323Z,22.29
2019-05-26T23:44:05.816Z,21.68
2019-05-26T23:46:34.374Z,21.67
2019-05-26T23:49:02.975Z,21.75
2019-05-26T23:51:31.458Z,21.63
2019-05-26T23:53:59.947Z,21.54
2019-05-26T23:56:28.682Z,21.52
2019-05-26T23:58:57.203Z,21.64
